Montgomery, Iowa
Current Conditions -  °F | °C
As of 1:14 AM on Sunday 26 Oct 2014 (Local Time) from KMJQ Reporting Station
Clear Clear  
Wind Chill: 36°   Ceiling: Unl
Heat Index: 36°   Visibility: 10mi
Dew Point: 32°   Wind: 0mph
Humidity: 87%   Direction: NA
Pressure: 30.05"   Gusts: NA
Location:  43.4265°N, 95.1547°W
Report Text: KMJQ 260614Z AUTO 00000KT 10SM CLR 02/00 A3005 RMK AO2
Loading
Personal Weather Stations






























Interactive Weather Map
Tropical Storm Tracking
New forecast layout! Learn more

10-Day Weather Forecast

Advertisements
Track Severe Weather on mobile